Airfield :
LOGIN :

Register | Disclaimer

   EN    FR    IT 

 










Legend :    VFR   Marginal VFR   IFR   Intensive IFR   Very Intensive IFR
Visi :
Ceiling :
>= 8 km
>= 3000ft
5 to 8 km
1000 to 3000 ft
1500m to 5 km
500 to 1000 ft
800 to 1500m
200 to 500 ft
< 800m
< 200 ft
Symbols :   Thunderstorms  Fog  Heavy snow  Heavy precipitations  Wind > 20 kt
SIGMETs :     Misc.  Thunderstorms  Icing  Turbulence  Mountain Waves  Volcanic Ashes







- Airport Elevation : 220 ft
- IATA code : CWL
- Download approach charts


EGFF - Cardiff Rhoose

CURRENT METAR :
  • 210420Z AUTO 12009KT 6000 -RA BKN006 BKN017 BKN035 03/03 Q1013

EXPIRED METARs :
  • 210350Z 09007KT 060V120 7000 SCT021TCU 03/03 Q1014
  • 210320Z 11009KT 9999 FEW008 SCT035 03/03 Q1013
  • 210250Z AUTO 11008KT 6000 -RA FEW030 SCT040 03/03 Q1013
  • 210220Z AUTO 09006KT 9999 FEW009 03/03 Q1013
  • 210150Z AUTO 12006KT 9999 BKN010 03/02 Q1013

TAF TAF EGFF
Valid from the 21 at 00:00 until the 22 at 00:00 UTC


202305Z 2100/2124 VRB03KT 9999 FEW015
TEMPO 2100/2103 3000 BR BKN006
BECMG 2103/2106 12015KT 5000 -RADZ BKN005
TEMPO 2104/2111 3000 RADZ BKN003
BECMG 2111/2114 27020KT 3000 RADZ BR BKN003
TEMPO 2111/2120 0200 FG BKN001
BECMG 2120/2123 27010KT 9999 BKN025
ATIS : +44 1446 729 319
No reported NOTAMs for that airfield.
1 SIGMET reported for the London FIR (EGTT) :
 
Severe icing
EGTT SIGMET 02 VALID 210435/210715 EGRR
EGTT LONDON FIR SEV ICE FCST WI N5500 W00530 - N5500 W00313 - N5321 W00005 - N5120 W00240 - N5231 W00530 - N5500 W00530 FL020/140 MOV ESE 15KT NC=



MET'MAP, your aeronautical weather chart ! - Copyright ORBIFLY December 2007 - Disclaimer

ORBIFLY MET'MAP TEAM :

Programming & Development : Alexandra Zaïnal
Concept & Development : Baudouin d'Aumeries
Co-Development & Prog : Marc-Olivier Méhu
Technical & hardware support : Manuel Goepfert

Contact : metmap@orbifly.com




SOURCES & CREDITS :

   NOAA